Time,TemperatureF,DewpointF,PressureIn,WindDirection,WindDirectionDegrees,WindSpeedMPH,WindSpeedGustMPH,Humidity,HourlyPrecipIn,Conditions,Clouds,dailyrainin,SoftwareType,DateUTC
2013-09-28 00:08:00,69.0,27.0,29.93,WNW,289,4.0,7.0,21,0.00,,,0.00,weatherlink.com 1.10,2013-09-28 07:08:00,
2013-09-28 00:26:00,68.9,28.0,29.94,WNW,292,1.0,4.0,22,0.00,,,0.00,weatherlink.com 1.10,2013-09-28 07:26:00,
2013-09-28 00:42:00,68.5,28.0,29.94,WNW,300,4.0,6.0,22,0.00,,,0.00,weatherlink.com 1.10,2013-09-28 07:42:00,
2013-09-28 01:00:00,66.9,32.0,29.95,North,3,2.0,6.0,27,0.00,,,0.00,weatherlink.com 1.10,2013-09-28 08:00:00,
2013-09-28 01:17:00,66.7,30.0,29.95,NNW,345,2.0,4.0,25,0.00,,,0.00,weatherlink.com 1.10,2013-09-28 08:17:00,
2013-09-28 01:35:00,66.7,29.0,29.95,East,94,0.0,2.0,24,0.00,,,0.00,weatherlink.com 1.10,2013-09-28 08:35:00,
2013-09-28 01:51:00,64.6,30.0,29.95,East,94,0.0,1.0,27,0.00,,,0.00,weatherlink.com 1.10,2013-09-28 08:51:00,
2013-09-28 02:09:00,64.7,29.0,29.95,NNE,24,0.0,2.0,26,0.00,,,0.00,weatherlink.com 1.10,2013-09-28 09:09:00,
2013-09-28 02:26:00,63.5,30.0,29.95,East,79,0.0,1.0,28,0.00,,,0.00,weatherlink.com 1.10,2013-09-28 09:26:00,
2013-09-28 02:43:00,63.4,30.0,29.95,NE,48,2.0,2.0,29,0.00,,,0.00,weatherlink.com 1.10,2013-09-28 09:43:00,
2013-09-28 03:00:00,62.8,31.0,29.95,NE,35,0.0,3.0,30,0.00,,,0.00,weatherlink.com 1.10,2013-09-28 10:00:00,
2013-09-28 03:18:00,62.3,30.0,29.96,NE,49,0.0,2.0,30,0.00,,,0.00,weatherlink.com 1.10,2013-09-28 10:18:00,
2013-09-28 03:35:00,61.9,30.0,29.96,NNE,27,1.0,3.0,30,0.00,,,0.00,weatherlink.com 1.10,2013-09-28 10:35:00,
2013-09-28 03:53:00,62.0,30.0,29.96,NNE,18,2.0,4.0,30,0.00,,,0.00,weatherlink.com 1.10,2013-09-28 10:53:00,
2013-09-28 04:09:00,61.4,30.0,29.96,NNE,19,2.0,3.0,31,0.00,,,0.00,weatherlink.com 1.10,2013-09-28 11:09:00,
2013-09-28 04:27:00,61.0,31.0,29.97,NNE,29,1.0,3.0,32,0.00,,,0.00,weatherlink.com 1.10,2013-09-28 11:27:00,
2013-09-28 04:44:00,60.6,30.0,29.97,NNE,18,3.0,4.0,32,0.00,,,0.00,weatherlink.com 1.10,2013-09-28 11:44:00,
2013-09-28 05:02:00,60.9,30.0,29.97,NNE,30,2.0,3.0,31,0.00,,,0.00,weatherlink.com 1.10,2013-09-28 12:02:00,
2013-09-28 05:19:00,60.6,30.0,29.98,NNE,20,4.0,4.0,31,0.00,,,0.00,weatherlink.com 1.10,2013-09-28 12:19:00,
2013-09-28 05:36:00,60.0,30.0,29.98,NE,40,0.0,4.0,32,0.00,,,0.00,weatherlink.com 1.10,2013-09-28 12:36:00,
2013-09-28 05:53:00,59.6,30.0,29.99,NNE,25,3.0,5.0,33,0.00,,,0.00,weatherlink.com 1.10,2013-09-28 12:53:00,
2013-09-28 06:11:00,60.0,30.0,29.99,NNE,26,3.0,4.0,32,0.00,,,0.00,weatherlink.com 1.10,2013-09-28 13:11:00,
2013-09-28 06:28:00,59.4,29.0,30.00,North,355,2.0,3.0,32,0.00,,,0.00,weatherlink.com 1.10,2013-09-28 13:28:00,
2013-09-28 06:46:00,59.4,30.0,30.01,NNE,15,3.0,3.0,33,0.00,,,0.00,weatherlink.com 1.10,2013-09-28 13:46:00,
2013-09-28 07:03:00,60.9,30.0,30.01,NNW,345,2.0,3.0,31,0.00,,,0.00,weatherlink.com 1.10,2013-09-28 14:03:00,
2013-09-28 07:20:00,62.5,32.0,30.02,North,352,1.0,2.0,32,0.00,,,0.00,weatherlink.com 1.10,2013-09-28 14:20:00,
2013-09-28 07:38:00,63.9,33.0,30.02,NNW,343,1.0,2.0,32,0.00,,,0.00,weatherlink.com 1.10,2013-09-28 14:38:00,
2013-09-28 07:54:00,66.0,32.0,30.03,North,5,0.0,2.0,28,0.00,,,0.00,weatherlink.com 1.10,2013-09-28 14:54:00,
2013-09-28 08:12:00,67.5,31.0,30.03,NNW,329,1.0,3.0,26,0.00,,,0.00,weatherlink.com 1.10,2013-09-28 15:12:00,
2013-09-28 08:29:00,68.0,31.0,30.04,WNW,290,2.0,3.0,25,0.00,,,0.00,weatherlink.com 1.10,2013-09-28 15:29:00,
2013-09-28 08:47:00,68.4,31.0,30.04,NW,307,1.0,3.0,25,0.00,,,0.00,weatherlink.com 1.10,2013-09-28 15:47:00,
2013-09-28 09:03:00,69.6,32.0,30.04,WNW,289,2.0,3.0,25,0.00,,,0.00,weatherlink.com 1.10,2013-09-28 16:03:00,
2013-09-28 09:21:00,70.9,32.0,30.04,WNW,284,0.0,4.0,24,0.00,,,0.00,weatherlink.com 1.10,2013-09-28 16:21:00,
2013-09-28 09:38:00,72.0,33.0,30.05,WSW,237,2.0,4.0,24,0.00,,,0.00,weatherlink.com 1.10,2013-09-28 16:38:00,
2013-09-28 09:56:00,72.7,34.0,30.05,WSW,248,1.0,6.0,24,0.00,,,0.00,weatherlink.com 1.10,2013-09-28 16:56:00,
2013-09-28 10:13:00,73.9,35.0,30.05,SW,229,3.0,6.0,24,0.00,,,0.00,weatherlink.com 1.10,2013-09-28 17:13:00,
2013-09-28 10:31:00,74.8,33.0,30.05,West,262,2.0,5.0,22,0.00,,,0.00,weatherlink.com 1.10,2013-09-28 17:31:00,
2013-09-28 10:47:00,75.9,33.0,30.04,West,260,3.0,8.0,21,0.00,,,0.00,weatherlink.com 1.10,2013-09-28 17:47:00,
2013-09-28 11:05:00,77.0,33.0,30.04,West,276,3.0,7.0,20,0.00,,,0.00,weatherlink.com 1.10,2013-09-28 18:05:00,
2013-09-28 11:22:00,78.5,32.0,30.04,WSW,252,1.0,6.0,18,0.00,,,0.00,weatherlink.com 1.10,2013-09-28 18:22:00,
2013-09-28 11:40:00,80.5,30.0,30.03,South,178,2.0,6.0,16,0.00,,,0.00,weatherlink.com 1.10,2013-09-28 18:40:00,
2013-09-28 11:57:00,81.1,29.0,30.03,West,262,2.0,7.0,15,0.00,,,0.00,weatherlink.com 1.10,2013-09-28 18:57:00,
2013-09-28 12:15:00,82.9,29.0,30.02,South,172,2.0,7.0,14,0.00,,,0.00,weatherlink.com 1.10,2013-09-28 19:15:00,
2013-09-28 12:31:00,83.3,26.0,30.02,WSW,245,2.0,8.0,12,0.00,,,0.00,weatherlink.com 1.10,2013-09-28 19:31:00,
2013-09-28 12:49:00,84.2,26.0,30.01,WSW,251,1.0,9.0,12,0.00,,,0.00,weatherlink.com 1.10,2013-09-28 19:49:00,
2013-09-28 13:06:00,84.0,24.0,30.01,SW,230,3.0,7.0,11,0.00,,,0.00,weatherlink.com 1.10,2013-09-28 20:06:00,
2013-09-28 13:24:00,85.7,25.0,29.99,SSW,212,1.0,7.0,11,0.00,,,0.00,weatherlink.com 1.10,2013-09-28 20:24:00,
2013-09-28 13:40:00,86.3,26.0,29.98,SSW,208,0.0,6.0,11,0.00,,,0.00,weatherlink.com 1.10,2013-09-28 20:40:00,
2013-09-28 13:58:00,86.0,26.0,29.98,SSW,212,4.0,7.0,11,0.00,,,0.00,weatherlink.com 1.10,2013-09-28 20:58:00,
2013-09-28 14:16:00,86.8,26.0,29.97,WNW,292,5.0,6.0,11,0.00,,,0.00,weatherlink.com 1.10,2013-09-28 21:16:00,
2013-09-28 14:33:00,86.6,21.0,29.97,WNW,288,3.0,9.0,9,0.00,,,0.00,weatherlink.com 1.10,2013-09-28 21:33:00,
2013-09-28 14:49:00,87.4,22.0,29.96,West,266,2.0,9.0,9,0.00,,,0.00,weatherlink.com 1.10,2013-09-28 21:49:00,
2013-09-28 15:07:00,87.4,19.0,29.96,WSW,252,2.0,7.0,8,0.00,,,0.00,weatherlink.com 1.10,2013-09-28 22:07:00,
2013-09-28 15:25:00,87.4,19.0,29.96,SW,229,2.0,8.0,8,0.00,,,0.00,weatherlink.com 1.10,2013-09-28 22:25:00,
2013-09-28 15:42:00,87.6,16.0,29.95,SSW,212,4.0,10.0,7,0.00,,,0.00,weatherlink.com 1.10,2013-09-28 22:42:00,
2013-09-28 15:59:00,87.5,19.0,29.95,West,281,3.0,8.0,8,0.00,,,0.00,weatherlink.com 1.10,2013-09-28 22:59:00,
2013-09-28 16:16:00,87.4,19.0,29.94,WSW,248,6.0,8.0,8,0.00,,,0.00,weatherlink.com 1.10,2013-09-28 23:16:00,
2013-09-28 16:34:00,87.4,16.0,29.94,West,259,1.0,8.0,7,0.00,,,0.00,weatherlink.com 1.10,2013-09-28 23:34:00,
2013-09-28 16:51:00,87.5,16.0,29.94,WNW,295,0.0,3.0,7,0.00,,,0.00,weatherlink.com 1.10,2013-09-28 23:51:00,
2013-09-28 17:08:00,87.7,19.0,29.94,SW,232,0.0,6.0,8,0.00,,,0.00,weatherlink.com 1.10,2013-09-29 00:08:00,
2013-09-28 17:25:00,87.7,19.0,29.93,NW,304,0.0,4.0,8,0.00,,,0.00,weatherlink.com 1.10,2013-09-29 00:25:00,
2013-09-28 17:43:00,87.6,19.0,29.94,WNW,293,2.0,4.0,8,0.00,,,0.00,weatherlink.com 1.10,2013-09-29 00:43:00,
2013-09-28 18:00:00,87.8,19.0,29.93,West,276,1.0,3.0,8,0.00,,,0.00,weatherlink.com 1.10,2013-09-29 01:00:00,
2013-09-28 18:18:00,86.6,19.0,29.94,West,273,0.0,2.0,8,0.00,,,0.00,weatherlink.com 1.10,2013-09-29 01:18:00,
2013-09-28 18:34:00,84.4,20.0,29.94,WNW,284,0.0,1.0,9,0.00,,,0.00,weatherlink.com 1.10,2013-09-29 01:34:00,
2013-09-28 18:52:00,83.3,19.0,29.94,NNW,342,1.0,1.0,9,0.00,,,0.00,weatherlink.com 1.10,2013-09-29 01:52:00,
2013-09-28 19:09:00,81.4,22.0,29.94,NNE,16,1.0,2.0,11,0.00,,,0.00,weatherlink.com 1.10,2013-09-29 02:09:00,
2013-09-28 19:27:00,79.8,21.0,29.94,NNE,15,0.0,1.0,11,0.00,,,0.00,weatherlink.com 1.10,2013-09-29 02:27:00,
2013-09-28 19:43:00,78.4,24.0,29.95,NNE,20,2.0,2.0,13,0.00,,,0.00,weatherlink.com 1.10,2013-09-29 02:43:00,
2013-09-28 20:01:00,77.1,24.0,29.95,NNE,27,4.0,4.0,14,0.00,,,0.00,weatherlink.com 1.10,2013-09-29 03:01:00,
2013-09-28 20:18:00,76.6,24.0,29.95,NNE,30,3.0,4.0,14,0.00,,,0.00,weatherlink.com 1.10,2013-09-29 03:18:00,
2013-09-28 20:36:00,76.5,24.0,29.96,NE,42,3.0,5.0,14,0.00,,,0.00,weatherlink.com 1.10,2013-09-29 03:36:00,
2013-09-28 20:52:00,75.9,25.0,29.96,NNE,28,3.0,6.0,15,0.00,,,0.00,weatherlink.com 1.10,2013-09-29 03:52:00,
2013-09-28 21:10:00,75.2,24.0,29.96,NNE,18,4.0,6.0,15,0.00,,,0.00,weatherlink.com 1.10,2013-09-29 04:10:00,
2013-09-28 21:27:00,74.5,24.0,29.96,ENE,69,0.0,4.0,15,0.00,,,0.00,weatherlink.com 1.10,2013-09-29 04:27:00,
2013-09-28 21:45:00,74.0,23.0,29.97,East,94,1.0,2.0,15,0.00,,,0.00,weatherlink.com 1.10,2013-09-29 04:45:00,
2013-09-28 22:02:00,74.0,23.0,29.98,NNE,29,3.0,4.0,15,0.00,,,0.00,weatherlink.com 1.10,2013-09-29 05:02:00,
2013-09-28 22:19:00,72.9,23.0,29.98,NNE,28,3.0,5.0,15,0.00,,,0.00,weatherlink.com 1.10,2013-09-29 05:19:00,
2013-09-28 22:36:00,72.2,23.0,29.98,North,11,1.0,3.0,16,0.00,,,0.00,weatherlink.com 1.10,2013-09-29 05:36:00,
2013-09-28 22:53:00,72.5,25.0,29.98,North,10,2.0,3.0,17,0.00,,,0.00,weatherlink.com 1.10,2013-09-29 05:53:00,
2013-09-28 23:11:00,71.1,25.0,29.98,NNE,13,3.0,3.0,18,0.00,,,0.00,weatherlink.com 1.10,2013-09-29 06:11:00,
2013-09-28 23:28:00,71.0,25.0,29.98,NNE,15,1.0,3.0,18,0.00,,,0.00,weatherlink.com 1.10,2013-09-29 06:28:00,
2013-09-28 23:45:00,71.3,26.0,29.98,North,11,1.0,1.0,18,0.00,,,0.00,weatherlink.com 1.10,2013-09-29 06:45:00,